Latest Coastal Weather Observations for Hobart Airport

IDT60701

Issued at 4:42 am EDT Friday 18 October 2019 (issued every 10 minutes, with the page automatically refreshed every 10 minutes)

About coastal observations | Map of coastal stations | Coastal observations for TAS | Marine services | Other Formats
Station Details ID: 094008 Name: HOBART AIRPORT Lat: -42.83 Lon: 147.50 Height: 4.0 m
Data from the previous 72 hours. | See also: Recent months at Hobart Airport
Date/Time
EDT
Wind Sea
Height
m
Swell Vis
km
Cloud Weather Temp
°C
Press
hPa
Rain since
9am
mm
Dir  Spd
kts
Gust
kts
Height
m
Period
s
Dir
18/04:30am NW 8 9 - - - - 10 Partly cloudy - 9.1 1007.0 0.0
18/04:00am NNW 7 10 - - - - 10 - - 9.3 1007.0 0.0
18/03:30am N 7 10 - - - - 10 - - 7.9 1007.5 0.0
18/03:00am NNW 7 11 - - - - 10 Mostly clear - 9.3 1007.7 0.0
18/02:30am NNW 8 12 - - - - 10 - - 8.8 1008.0 0.0
18/02:00am NNW 7 9 - - - - 10 - - 8.7 1008.3 0.0
18/01:30am NW 6 7 - - - - 10 - - 8.4 1008.6 0.0
18/01:00am NW 10 12 - - - - 10 - - 8.2 1008.9 0.0
18/12:30am NNW 6 8 - - - - 10 - - 8.4 1009.0 0.0
18/12:00am NW 7 8 - - - - 10 - - 8.8 1009.0 0.0
 
Date/Time
EDT
Wind Sea
Height
m
Swell Vis
km
Cloud Weather Temp
°C
Press
hPa
Rain since
9am
mm
Dir  Spd
kts
Gust
kts
Height
m
Period
s
Dir
17/11:30pm NW 7 9 - - - - 10 Mostly clear - 9.1 1008.9 0.0
17/11:00pm NNW 2 5 - - - - 10 Mostly clear - 9.0 1009.1 0.0
17/10:30pm CALM 0 0 - - - - 10 Mostly clear - 8.5 1009.0 0.0
17/10:00pm W 4 7 - - - - 10 Mostly clear - 9.6 1008.9 0.0
17/09:30pm NNE 4 5 - - - - 10 Mostly clear - 9.2 1008.7 0.0
17/09:00pm E 4 5 - - - - 40 Mostly clear Fine 10.4 1008.6 0.0
17/08:30pm E 5 6 - - - - 10 Mostly clear - 10.6 1008.5 0.0
17/08:00pm E 5 7 - - - - 10 Mostly clear - 11.4 1007.9 0.0
17/07:30pm ESE 4 5 - - - - 10 Mostly clear - 11.9 1007.6 0.0
17/07:00pm ESE 4 5 - - - - 10 Mostly clear - 13.3 1007.1 0.0
17/06:30pm E 6 9 - - - - 10 Mostly clear - 13.8 1006.7 0.0
17/06:00pm SSE 8 10 - - - - 40 Mostly clear Fine 14.3 1006.5 0.0
17/05:30pm SE 10 15 - - - - 10 Mostly clear - 14.2 1006.2 0.0
17/05:00pm S 13 16 - - - - 10 Mostly clear - 14.4 1006.1 0.0
17/04:30pm SSE 12 16 - - - - 10 Mostly clear - 14.4 1006.0 0.0
17/04:00pm SSE 15 19 - - - - 10 Mostly clear - 14.3 1005.7 0.0
17/03:30pm SSE 15 18 - - - - 10 Mostly clear - 14.1 1005.6 0.0
17/03:00pm SSE 15 19 - - - - 40 Mostly clear Distant precip. 14.6 1005.7 0.0
17/02:30pm SSE 13 17 - - - - 10 Mostly clear - 14.2 1006.0 0.0
17/02:00pm SSE 14 18 - - - - 10 Mostly clear - 14.2 1006.0 0.0
17/01:30pm S 9 17 - - - - 10 Mostly clear - 14.4 1006.0 0.0
17/01:00pm S 11 14 - - - - 10 Partly cloudy - 13.8 1006.3 0.0
17/12:30pm S 9 14 - - - - 10 Partly cloudy - 13.2 1006.4 0.0
17/12:00pm SSE 7 10 - - - - 40 Partly cloudy Fine 13.3 1006.6 0.0
17/11:30am SSE 7 10 - - - - 10 Mostly clear - 12.8 1006.6 0.0
17/11:00am S 7 10 - - - - 10 Mostly clear - 12.9 1006.8 0.0
17/10:30am N 3 6 - - - - 10 Mostly clear - 11.9 1006.9 0.0
17/10:00am NNW 3 5 - - - - 10 Mostly clear - 10.9 1007.2 0.0
17/09:30am WNW 5 7 - - - - 10 Mostly clear - 10.1 1007.1 0.0
17/09:00am NW 8 10 - - - - 40 Mostly clear Fine 9.4 1007.1 1.4
17/08:30am NW 8 9 - - - - 10 Mostly clear - 8.4 1007.1 1.4
17/08:00am NW 8 9 - - - - 10 Mostly clear - 8.1 1007.1 1.4
17/07:30am WNW 7 9 - - - - 10 Mostly clear - 7.0 1007.1 1.4
17/07:13am NW 7 10 - - - - 10 Partly cloudy - 6.9 1007.0 1.4
17/07:00am NW 9 10 - - - - 10 Mostly clear - 6.3 1006.8 1.4
17/06:50am NW 8 10 - - - - 10 Mostly clear - 6.1 1006.8 1.4
17/06:30am WNW 7 8 - - - - 10 Mostly clear - 5.9 1006.8 1.4
17/06:00am NW 7 9 - - - - 40 Mostly cloudy Distant fog 5.9 1006.7 1.4
17/05:30am WNW 6 7 - - - - 10 Partly cloudy - 6.4 1006.5 1.4
17/05:00am WNW 7 8 - - - - 10 - - 6.1 1006.5 1.4
17/04:30am WNW 6 8 - - - - 10 - - 6.4 1006.6 1.4
17/04:00am WNW 6 7 - - - - 10 - - 6.6 1007.0 1.4
17/03:30am WNW 6 7 - - - - 10 Partly cloudy - 6.9 1007.3 1.4
17/03:00am WNW 7 8 - - - - 10 Cloudy - 7.5 1007.5 1.4
17/02:30am WNW 7 9 - - - - 10 Cloudy - 7.4 1007.7 1.4
17/02:00am WNW 7 8 - - - - 10 Partly cloudy - 7.5 1007.8 1.4
17/01:30am WNW 6 8 - - - - 10 Partly cloudy - 7.5 1008.2 1.4
17/01:00am NW 5 6 - - - - 10 Partly cloudy - 7.9 1008.1 1.4
17/12:30am WNW 5 6 - - - - 10 Partly cloudy - 8.5 1008.3 1.4
17/12:00am W 4 5 - - - - 10 Cloudy - 8.3 1008.5 1.4
 
Date/Time
EDT
Wind Sea
Height
m
Swell Vis
km
Cloud Weather Temp
°C
Press
hPa
Rain since
9am
mm
Dir  Spd
kts
Gust
kts
Height
m
Period
s
Dir
16/11:30pm S 4 5 - - - - 10 Mostly clear - 9.2 1008.4 1.4
16/11:00pm S 6 8 - - - - 10 Mostly clear - 9.4 1008.6 1.4
16/10:30pm S 7 8 - - - - 10 Mostly clear - 9.2 1008.6 1.4
16/10:00pm SSW 8 10 - - - - 10 Mostly clear - 9.0 1008.7 1.4
16/09:45pm SSW 8 11 - - - - 10 Mostly clear Showers 9.0 1008.7 1.4
16/09:30pm S 11 15 - - - - 10 Mostly clear Showers 9.2 1008.8 1.4
16/09:19pm S 14 18 - - - - 10 Mostly clear Showers 9.3 1008.7 1.4
16/09:07pm SSW 13 17 - - - - 10 Partly cloudy - 9.3 1008.6 1.4
16/09:00pm SSW 8 15 - - - - 12 Mostly cloudy Showers 9.5 1008.6 1.4
16/08:30pm SW 7 8 - - - - 10 Mostly clear Showers 10.0 1008.5 1.0
16/08:00pm WSW 7 9 - - - - 10 Mostly clear - 10.4 1008.3 0.8
16/07:30pm N 7 8 - - - - 10 Mostly clear Showers 10.9 1007.9 0.6
16/07:00pm NE 10 14 - - - - 10 Mostly clear - 12.3 1007.6 0.0
16/06:30pm NE 8 12 - - - - 10 Mostly clear - 12.9 1007.5 0.0
16/06:00pm NE 9 13 - - - - 35 Mostly cloudy Fine 13.0 1007.4 0.0
16/05:30pm NE 11 14 - - - - 10 Mostly clear - 13.6 1007.2 0.0
16/05:00pm NE 10 15 - - - - 10 Mostly clear - 13.7 1007.4 0.0
16/04:30pm ENE 9 16 - - - - 10 Mostly clear - 13.7 1007.2 0.0
16/04:00pm NE 10 14 - - - - 10 Mostly clear - 13.5 1007.5 0.0
16/03:30pm NE 11 18 - - - - 10 Mostly clear Showers 13.5 1007.7 0.0
16/03:00pm ENE 12 16 - - - - 35 Mostly cloudy Distant precip. 13.9 1007.6 0.0
16/02:30pm NE 8 10 - - - - 10 Mostly clear - 16.2 1007.8 0.0
16/02:00pm ENE 6 9 - - - - 10 Mostly clear - 16.3 1008.4 0.0
16/01:30pm NW 8 10 - - - - 10 Mostly clear - 16.0 1008.8 0.0
16/01:00pm NNW 7 11 - - - - 10 Mostly clear - 15.2 1009.1 0.0
16/12:30pm NNW 7 10 - - - - 10 Mostly clear - 14.9 1009.4 0.0
16/12:00pm NNW 7 11 - - - - 40 Mostly clear Fine 14.0 1010.0 0.0
16/11:30am NW 7 9 - - - - 10 Mostly clear - 13.3 1010.5 0.0
16/11:00am NW 7 9 - - - - 10 Mostly clear - 12.6 1011.1 0.0
16/10:30am NW 9 11 - - - - 10 Mostly clear - 11.5 1011.5 0.0
16/10:00am NW 8 11 - - - - 10 Mostly clear - 10.7 1011.8 0.0
16/09:30am NNW 7 9 - - - - 10 Mostly clear - 9.5 1012.1 0.0
16/09:00am NW 7 9 - - - - 40 Mostly clear Fine 8.5 1012.2 9.4
16/08:30am WNW 8 10 - - - - 10 Mostly clear - 7.0 1012.4 9.4
16/08:00am NW 8 9 - - - - 10 Mostly clear - 6.0 1012.4 9.4
16/07:30am NW 10 12 - - - - 10 Mostly clear Fog 5.4 1012.5 9.4
16/07:20am NW 10 12 - - - - 10 Mostly clear Fog 5.0 1012.5 9.4
16/07:00am WNW 9 11 - - - - 10 Mostly clear - 4.8 1012.6 9.4
16/06:52am WNW 8 10 - - - - 10 Mostly clear Fog 4.8 1012.6 9.4
16/06:47am NW 8 11 - - - - 1 Mostly clear Fog patches 4.9 1012.7 9.4
16/06:30am NW 10 12 - - - - 10 Mostly clear Fog 4.6 1012.5 9.4
16/06:00am WNW 11 13 - - - - 25 Mostly clear Distant fog 4.5 1012.2 9.4
16/05:51am WNW 10 13 - - - - 10 Partly cloudy Fog 4.5 1012.3 9.4
16/05:30am NW 10 12 - - - - 10 - - 4.7 1012.0 9.4
16/05:00am NNW 9 13 - - - - 10 - - 5.1 1012.1 9.4
16/04:30am NW 8 10 - - - - 10 - - 5.4 1012.1 9.0
16/04:00am NW 5 8 - - - - 10 - - 5.3 1012.1 9.0
16/03:30am NNW 7 9 - - - - 10 - - 5.3 1012.2 9.0
16/03:00am NNW 8 11 - - - - 10 - - 5.7 1012.5 9.0
16/02:30am NW 9 11 - - - - 10 - - 6.0 1012.7 9.0
16/02:00am NW 8 9 - - - - 10 - - 6.0 1012.5 9.0
16/01:30am NW 8 10 - - - - 10 - - 6.4 1012.6 9.0
16/01:00am NNW 5 6 - - - - 10 - - 7.0 1012.9 9.0
16/12:30am NW 7 8 - - - - 10 - - 7.2 1013.0 9.0
16/12:00am NW 8 10 - - - - 10 Partly cloudy - 6.6 1013.1 9.0
 
Date/Time
EDT
Wind Sea
Height
m
Swell Vis
km
Cloud Weather Temp
°C
Press
hPa
Rain since
9am
mm
Dir  Spd
kts
Gust
kts
Height
m
Period
s
Dir
15/11:30pm WNW 3 5 - - - - 10 Mostly clear - 6.9 1013.1 9.0
15/11:00pm WNW 3 5 - - - - 10 Mostly clear - 6.8 1013.1 9.0
15/10:30pm NW 5 6 - - - - 10 Mostly clear - 7.6 1013.0 9.0
15/10:00pm W 5 6 - - - - 10 Mostly clear - 7.6 1013.2 9.0
15/09:30pm N 4 6 - - - - 10 Mostly clear - 8.3 1013.1 9.0
15/09:00pm NNE 4 5 - - - - 25 Mostly cloudy Fine 8.3 1013.1 9.0
15/08:30pm ENE 5 5 - - - - 10 Mostly clear - 8.4 1012.7 9.0
15/08:00pm ESE 5 7 - - - - 10 Mostly clear - 9.0 1012.4 9.0
15/07:30pm ESE 5 7 - - - - 10 Mostly clear Rain 9.5 1012.1 9.0
15/07:00pm E 3 5 - - - - 10 Mostly clear - 9.3 1011.7 9.0
15/06:30pm E 5 6 - - - - 10 Partly cloudy Rain 9.2 1011.6 9.0
15/06:00pm E 4 6 - - - - 10 Cloudy Rain 9.6 1011.6 8.6
15/05:52pm ESE 6 9 - - - - 9 Mostly clear Rain 9.6 1011.5 8.6
15/05:30pm SE 4 5 - - - - 8 Mostly clear Rain 9.7 1011.7 7.8
15/05:26pm SSE 3 5 - - - - 9 Partly cloudy - 9.7 1011.6 7.8
15/05:15pm W 2 4 - - - - 6 Mostly clear Rain 9.4 1011.7 7.4
15/05:00pm SW 5 7 - - - - 6 Mostly clear - 9.1 1011.7 6.6
15/04:47pm S 7 9 - - - - 5 Mostly clear Rain 9.2 1011.5 5.4
15/04:30pm SE 7 9 - - - - 7 Mostly clear Rain 9.7 1011.1 4.6
15/04:18pm SSE 7 10 - - - - 7 Mostly clear Rain 9.9 1011.3 3.8
15/04:00pm SSE 10 14 - - - - 8 Mostly clear - 10.1 1010.9 3.2
15/03:32pm SE 6 10 - - - - 6 Partly cloudy Showers 10.7 1010.8 1.4
15/03:30pm SE 6 10 - - - - 8 Mostly clear Showers 10.7 1010.8 1.0
15/03:26pm SE 7 10 - - - - 7 Mostly clear Showers 10.8 1010.6 1.0
15/03:06pm SSE 9 11 - - - - 10 Mostly clear Showers 11.3 1010.7 0.6
15/03:00pm SSE 7 10 - - - - 15 Mostly cloudy Showers 11.6 1010.6 0.2
15/02:30pm SSE 8 9 - - - - 10 Mostly clear Showers 11.7 1010.9 0.2
15/02:00pm SE 8 13 - - - - 10 Mostly clear - 11.7 1010.9 0.2
15/01:30pm SE 9 12 - - - - 10 Mostly clear - 11.9 1010.9 0.2
15/01:00pm SSE 9 12 - - - - 10 Mostly clear - 11.7 1011.1 0.2
15/12:30pm SSE 9 12 - - - - 10 Mostly clear - 13.0 1011.3 0.2
15/12:00pm SSE 11 14 - - - - 15 Mostly cloudy Drizzle 12.5 1011.5 0.2
15/11:35am SSE 8 10 - - - - 7 Mostly clear Rain 11.1 1011.9 0.0
15/11:30am SSE 9 10 - - - - 8 Mostly clear Drizzle 11.4 1012.0 0.0
15/11:00am SSE 9 12 - - - - 10 Mostly clear - 11.5 1012.0 0.0
15/10:30am SSE 12 15 - - - - 10 Mostly clear - 11.2 1012.3 0.0
15/10:00am SSE 9 12 - - - - 10 Mostly clear - 11.8 1012.2 0.0
15/09:30am SSW 6 8 - - - - 10 Mostly clear Drizzle 12.0 1012.2 0.0
15/09:00am W 5 7 - - - - 30 Mostly cloudy Fine 11.9 1012.0 1.2
15/08:30am NW 5 6 - - - - 10 Mostly clear - 12.6 1011.7 1.2
15/08:00am WNW 5 7 - - - - 10 Mostly clear - 10.6 1011.8 1.2
15/07:30am NNW 3 5 - - - - 10 Mostly clear - 10.0 1011.8 1.2
15/07:00am E 4 7 - - - - 10 Mostly clear - 9.1 1011.7 1.2
15/06:30am WNW 7 9 - - - - 10 Mostly clear - 8.8 1011.2 1.2
15/06:00am NW 10 13 - - - - 30 Partly cloudy Fine 9.0 1010.9 1.2
15/05:30am NW 10 14 - - - - 10 - - 10.1 1010.7 1.2
15/05:00am NW 8 13 - - - - 10 - - 10.3 1010.7 1.2

Other formats

Comma delimited format used in spreadsheet applications
http://www.bom.gov.au/fwo/IDT60701/IDT60701.94975.axf

JavaScript Object Notation format (JSON) in row-major order
http://www.bom.gov.au/fwo/IDT60701/IDT60701.94975.json

Data quality

Most of these data are generated automatically and are frequently updated. Quality checks on data are not normally performed. It is possible for incorrect values to appear. Refer to information at About Latest Weather Observations and please check the disclaimer before using these data.